createdAt,value
2019-06-20T00:02:01.084Z,19.80
2019-06-20T00:04:30.783Z,19.80
2019-06-20T00:07:00.432Z,19.80
2019-06-20T00:09:30.155Z,19.80
2019-06-20T00:12:00.094Z,19.80
2019-06-20T00:14:29.751Z,19.80
2019-06-20T00:16:59.641Z,19.70
2019-06-20T00:19:29.309Z,19.70
2019-06-20T00:21:59.006Z,19.60
2019-06-20T00:24:28.665Z,19.60
2019-06-20T00:26:58.663Z,19.50
2019-06-20T00:29:28.399Z,19.60
2019-06-20T00:31:59.010Z,19.50
2019-06-20T00:34:28.980Z,19.50
2019-06-20T00:36:58.613Z,19.50
2019-06-20T00:39:28.260Z,19.50
2019-06-20T00:41:58.171Z,19.50
2019-06-20T00:44:28.187Z,19.50
2019-06-20T00:46:57.829Z,19.40
2019-06-20T00:49:27.527Z,19.30
2019-06-20T00:51:57.181Z,19.20
2019-06-20T00:54:26.823Z,19.20
2019-06-20T00:56:56.884Z,19.20
2019-06-20T00:59:26.679Z,19.30
2019-06-20T01:01:56.578Z,19.30
2019-06-20T01:04:26.304Z,19.30
2019-06-20T01:06:55.946Z,19.30
2019-06-20T01:09:25.721Z,19.30
2019-06-20T01:11:55.476Z,19.30
2019-06-20T01:14:25.164Z,19.30
2019-06-20T01:16:55.111Z,19.30
2019-06-20T01:19:24.992Z,19.30
2019-06-20T01:21:54.638Z,19.30
2019-06-20T01:24:24.648Z,19.20
2019-06-20T01:26:54.560Z,19.20
2019-06-20T01:29:24.358Z,19.10
2019-06-20T01:31:54.564Z,19.10
2019-06-20T01:34:24.243Z,19.10
2019-06-20T01:36:53.903Z,19.10
2019-06-20T01:39:23.563Z,19.10
2019-06-20T01:41:53.208Z,19.10
2019-06-20T01:44:23.008Z,19.10
2019-06-20T01:46:52.763Z,19.10
2019-06-20T01:49:22.404Z,19.00
2019-06-20T01:51:52.059Z,19.00
2019-06-20T01:54:21.707Z,19.00
2019-06-20T01:56:51.371Z,19.00
2019-06-20T01:59:21.025Z,18.90
2019-06-20T02:01:50.817Z,18.90
2019-06-20T02:04:20.548Z,18.90
2019-06-20T02:06:50.260Z,18.90
2019-06-20T02:09:20.269Z,18.80
2019-06-20T02:11:50.223Z,18.80
2019-06-20T02:14:19.934Z,18.80
2019-06-20T02:16:49.588Z,18.80
2019-06-20T02:19:19.235Z,18.80
2019-06-20T02:21:49.127Z,18.80
2019-06-20T02:24:18.874Z,18.70
2019-06-20T02:26:48.668Z,18.70
2019-06-20T02:29:18.335Z,18.70
2019-06-20T02:31:48.080Z,18.70
2019-06-20T02:34:17.832Z,18.70
2019-06-20T02:36:47.881Z,18.70
2019-06-20T02:39:17.541Z,18.60
2019-06-20T02:41:47.264Z,18.60
2019-06-20T02:44:29.061Z,18.60
2019-06-20T02:46:48.749Z,18.60
2019-06-20T02:49:18.499Z,18.60
2019-06-20T02:51:49.848Z,18.60
2019-06-20T02:54:19.681Z,18.60
2019-06-20T02:56:49.391Z,18.50
2019-06-20T02:59:19.100Z,18.50
2019-06-20T03:01:48.803Z,18.50
2019-06-20T03:04:18.465Z,18.40
2019-06-20T03:06:48.523Z,18.40
2019-06-20T03:09:18.497Z,18.40
2019-06-20T03:11:48.387Z,18.40
2019-06-20T03:14:18.430Z,18.40
2019-06-20T03:16:48.167Z,18.40
2019-06-20T03:19:17.819Z,18.40
2019-06-20T03:21:47.494Z,18.40
2019-06-20T03:24:17.492Z,18.40
2019-06-20T03:26:47.135Z,18.40
2019-06-20T03:29:17.106Z,18.40
2019-06-20T03:31:47.060Z,18.40
2019-06-20T03:34:17.015Z,18.40
2019-06-20T03:36:46.823Z,18.40
2019-06-20T03:39:16.731Z,18.40
2019-06-20T03:41:46.371Z,18.50
2019-06-20T03:44:16.027Z,18.50
2019-06-20T03:46:46.203Z,18.40
2019-06-20T03:49:15.867Z,18.40
2019-06-20T03:51:45.580Z,18.40
2019-06-20T03:54:15.468Z,18.50
2019-06-20T03:57:04.404Z,18.50
2019-06-20T03:59:34.072Z,18.50
2019-06-20T04:02:03.711Z,18.50
2019-06-20T04:04:33.376Z,18.50
2019-06-20T04:07:03.310Z,18.60
2019-06-20T04:09:33.143Z,18.60
2019-06-20T04:12:02.890Z,18.60
2019-06-20T04:14:32.571Z,18.60
2019-06-20T04:17:02.284Z,18.60
2019-06-20T04:19:33.266Z,18.50
2019-06-20T04:22:03.134Z,18.50
2019-06-20T04:24:32.923Z,18.50
2019-06-20T04:27:02.585Z,18.60
2019-06-20T04:29:35.760Z,18.60
2019-06-20T04:32:03.659Z,18.60
2019-06-20T04:34:33.298Z,18.60
2019-06-20T04:37:02.971Z,18.70
2019-06-20T04:39:32.642Z,18.80
2019-06-20T04:42:02.365Z,18.80
2019-06-20T04:44:32.063Z,18.90
2019-06-20T04:47:07.170Z,18.90
2019-06-20T04:49:37.167Z,18.90
2019-06-20T04:52:07.206Z,18.90
2019-06-20T04:54:36.859Z,18.90
2019-06-20T04:57:06.592Z,18.90
2019-06-20T04:59:37.307Z,19.00
2019-06-20T05:02:07.292Z,19.10
2019-06-20T05:04:37.224Z,19.10
2019-06-20T05:07:15.447Z,19.20
2019-06-20T05:09:45.160Z,19.20
2019-06-20T05:12:14.811Z,19.30
2019-06-20T05:14:44.830Z,19.30
2019-06-20T05:17:14.536Z,19.40
2019-06-20T05:19:45.371Z,19.50
2019-06-20T05:22:15.113Z,19.60
2019-06-20T05:24:45.130Z,19.70
2019-06-20T05:27:14.879Z,19.70
2019-06-20T05:29:44.549Z,19.80
2019-06-20T05:32:14.202Z,19.80
2019-06-20T05:34:45.011Z,19.90
2019-06-20T05:37:14.750Z,19.90
2019-06-20T05:39:44.395Z,19.90
2019-06-20T05:42:14.175Z,20.10
2019-06-20T05:44:44.063Z,20.30
2019-06-20T05:47:14.240Z,20.30
2019-06-20T05:49:43.998Z,20.50
2019-06-20T05:52:14.035Z,20.60
2019-06-20T05:54:43.987Z,20.70
2019-06-20T05:57:14.433Z,20.80
2019-06-20T05:59:44.407Z,21.00
2019-06-20T06:02:14.184Z,21.10
2019-06-20T06:04:43.999Z,21.30
2019-06-20T06:07:14.355Z,21.50
2019-06-20T06:09:45.553Z,21.60
2019-06-20T06:12:15.924Z,21.70
2019-06-20T06:14:45.665Z,21.20
2019-06-20T06:17:15.340Z,21.00
2019-06-20T06:19:45.005Z,21.10
2019-06-20T06:22:14.926Z,21.30
2019-06-20T06:24:44.646Z,21.30
2019-06-20T06:27:14.759Z,21.20
2019-06-20T06:29:44.494Z,21.00
2019-06-20T06:32:14.344Z,20.90
2019-06-20T06:34:43.995Z,20.90
2019-06-20T06:37:13.997Z,21.10
2019-06-20T06:39:43.879Z,21.20
2019-06-20T06:42:13.887Z,21.30
2019-06-20T06:44:44.606Z,21.30
2019-06-20T06:47:14.359Z,21.10
2019-06-20T06:49:44.974Z,21.20
2019-06-20T06:52:15.151Z,21.30
2019-06-20T06:54:44.904Z,21.30
2019-06-20T06:57:14.550Z,21.50
2019-06-20T06:59:44.625Z,21.50
2019-06-20T07:02:14.292Z,21.30
2019-06-20T07:04:44.279Z,21.10
2019-06-20T07:07:14.118Z,21.00
2019-06-20T07:09:43.848Z,21.00
2019-06-20T07:12:13.536Z,20.90
2019-06-20T07:14:43.888Z,20.80
2019-06-20T07:17:13.612Z,20.70
2019-06-20T07:19:43.460Z,20.60
2019-06-20T07:22:13.105Z,20.60
2019-06-20T07:24:42.774Z,20.60
2019-06-20T07:27:12.429Z,20.70
2019-06-20T07:29:42.506Z,20.70
2019-06-20T07:32:12.175Z,20.70
2019-06-20T07:34:41.939Z,20.70
2019-06-20T07:37:11.600Z,20.80
2019-06-20T07:39:41.260Z,20.80
2019-06-20T07:42:11.342Z,21.00
2019-06-20T07:44:41.448Z,21.10
2019-06-20T07:47:17.684Z,21.40
2019-06-20T07:49:42.466Z,21.50
2019-06-20T07:52:12.176Z,21.50
2019-06-20T07:54:42.131Z,21.40
2019-06-20T07:57:11.787Z,21.30
2019-06-20T07:59:41.448Z,21.30
2019-06-20T08:02:11.201Z,21.40
2019-06-20T08:04:40.900Z,21.40
2019-06-20T08:07:10.636Z,21.40
2019-06-20T08:09:44.885Z,21.30
2019-06-20T08:12:12.009Z,21.40
2019-06-20T08:14:42.012Z,21.40
2019-06-20T08:17:11.746Z,21.40
2019-06-20T08:19:41.390Z,21.40
2019-06-20T08:22:11.136Z,21.30
2019-06-20T08:24:40.802Z,21.30
2019-06-20T08:27:10.454Z,21.30
2019-06-20T08:29:40.142Z,21.10
2019-06-20T08:32:09.800Z,21.20
2019-06-20T08:34:39.455Z,21.10
2019-06-20T08:37:09.134Z,21.00
2019-06-20T08:39:38.923Z,20.80
2019-06-20T08:42:08.946Z,20.80
2019-06-20T08:44:38.765Z,20.80
2019-06-20T08:47:08.421Z,20.80
2019-06-20T08:49:38.067Z,20.80
2019-06-20T08:52:08.063Z,20.60
2019-06-20T08:54:37.767Z,20.80
2019-06-20T08:57:07.708Z,21.10
2019-06-20T08:59:37.547Z,21.50
2019-06-20T09:02:07.550Z,21.40
2019-06-20T09:04:37.411Z,21.20
2019-06-20T09:07:07.389Z,21.20
2019-06-20T09:09:37.062Z,21.30
2019-06-20T09:12:07.655Z,21.50
2019-06-20T09:14:37.400Z,21.90
2019-06-20T09:17:07.044Z,22.00
2019-06-20T09:19:36.722Z,22.10
2019-06-20T09:22:06.371Z,21.90
2019-06-20T09:24:36.179Z,21.90
2019-06-20T09:27:06.508Z,21.60
2019-06-20T09:29:41.603Z,21.40
2019-06-20T09:32:09.532Z,21.30
2019-06-20T09:34:39.184Z,21.30
2019-06-20T09:37:08.925Z,21.40
2019-06-20T09:39:38.596Z,21.40
2019-06-20T09:42:08.744Z,21.60
2019-06-20T09:44:38.398Z,21.60
2019-06-20T09:47:08.472Z,21.30
2019-06-20T09:49:38.212Z,21.20
2019-06-20T09:52:08.032Z,21.30
2019-06-20T09:54:37.828Z,21.40
2019-06-20T09:57:07.800Z,21.40
2019-06-20T09:59:37.696Z,21.40
2019-06-20T10:02:07.822Z,21.60
2019-06-20T10:04:37.620Z,21.60
2019-06-20T10:07:07.860Z,21.70
2019-06-20T10:09:37.811Z,22.00
2019-06-20T10:12:07.899Z,22.00
2019-06-20T10:14:37.558Z,22.10
2019-06-20T10:17:07.418Z,22.30
2019-06-20T10:19:37.139Z,22.40
2019-06-20T10:22:06.938Z,22.50
2019-06-20T10:24:36.936Z,22.50
2019-06-20T10:27:06.852Z,22.60
2019-06-20T10:29:36.578Z,22.60
2019-06-20T10:32:06.292Z,22.60
2019-06-20T10:34:35.955Z,22.50
2019-06-20T10:37:05.944Z,22.30
2019-06-20T10:39:35.986Z,22.30
2019-06-20T10:42:05.789Z,22.10
2019-06-20T10:44:35.535Z,22.10
2019-06-20T10:47:05.255Z,21.90
2019-06-20T10:49:34.971Z,22.00
2019-06-20T10:52:05.294Z,21.90
2019-06-20T10:54:35.028Z,21.90
2019-06-20T10:57:05.341Z,21.90
2019-06-20T10:59:35.155Z,21.80
2019-06-20T11:02:07.270Z,21.80
2019-06-20T11:04:36.451Z,21.70
2019-06-20T11:07:06.424Z,21.40
2019-06-20T11:09:36.087Z,21.40
2019-06-20T11:12:05.795Z,21.40
2019-06-20T11:14:35.620Z,21.70
2019-06-20T11:17:06.339Z,22.10
2019-06-20T11:19:38.097Z,22.30
2019-06-20T11:22:07.744Z,22.50
2019-06-20T11:24:39.131Z,22.60
2019-06-20T11:27:08.915Z,22.50
2019-06-20T11:29:38.602Z,22.50
2019-06-20T11:32:08.640Z,22.40
2019-06-20T11:34:39.393Z,22.40
2019-06-20T11:37:09.321Z,22.50
2019-06-20T11:39:39.047Z,22.20
2019-06-20T11:42:08.695Z,22.20
2019-06-20T11:44:38.899Z,22.40
2019-06-20T11:47:08.652Z,22.60
2019-06-20T11:49:38.374Z,22.60
2019-06-20T11:52:08.222Z,22.60
2019-06-20T11:54:38.271Z,22.30
2019-06-20T11:57:08.329Z,22.20
2019-06-20T11:59:38.440Z,22.40
2019-06-20T12:02:08.444Z,22.60
2019-06-20T12:04:38.231Z,23.00
2019-06-20T12:07:09.492Z,23.40
2019-06-20T12:09:40.875Z,23.40
2019-06-20T12:12:10.603Z,23.20
2019-06-20T12:14:41.394Z,22.90
2019-06-20T12:17:11.695Z,22.40
2019-06-20T12:19:42.499Z,22.40
2019-06-20T12:22:12.243Z,22.50
2019-06-20T12:24:42.964Z,22.90
2019-06-20T12:27:12.712Z,23.20
2019-06-20T12:29:42.678Z,23.10
2019-06-20T12:32:12.363Z,23.20
2019-06-20T12:34:42.221Z,23.20
2019-06-20T12:37:12.044Z,23.30
2019-06-20T12:39:42.302Z,23.30
2019-06-20T12:42:12.075Z,23.20
2019-06-20T12:44:41.742Z,22.90
2019-06-20T12:47:11.443Z,22.80
2019-06-20T12:49:41.805Z,22.60
2019-06-20T12:52:11.720Z,22.70
2019-06-20T12:54:43.246Z,22.70
2019-06-20T12:57:13.031Z,22.80
2019-06-20T12:59:44.460Z,22.90
2019-06-20T13:02:14.269Z,23.10
2019-06-20T13:04:44.151Z,23.10
2019-06-20T13:07:14.071Z,23.20
2019-06-20T13:09:44.022Z,23.00
2019-06-20T13:12:14.962Z,23.00
2019-06-20T13:14:45.621Z,22.90
2019-06-20T13:17:15.487Z,23.00
2019-06-20T13:19:46.480Z,23.10
2019-06-20T13:22:16.502Z,23.10
2019-06-20T13:24:47.188Z,23.30
2019-06-20T13:27:16.895Z,23.40
2019-06-20T13:29:47.271Z,23.20
2019-06-20T13:32:17.491Z,23.10
2019-06-20T13:34:48.853Z,22.90
2019-06-20T13:37:18.862Z,22.60
2019-06-20T13:39:50.061Z,22.60
2019-06-20T13:42:19.979Z,22.40
2019-06-20T13:44:49.899Z,22.40
2019-06-20T13:47:19.565Z,22.30
2019-06-20T13:49:50.085Z,22.30
2019-06-20T13:52:20.125Z,22.10
2019-06-20T13:54:49.953Z,22.10
2019-06-20T13:57:19.707Z,22.00
2019-06-20T13:59:52.638Z,22.00
2019-06-20T14:02:21.047Z,22.20
2019-06-20T14:04:50.795Z,22.30
2019-06-20T14:07:20.738Z,22.40
2019-06-20T14:09:51.098Z,22.70
2019-06-20T14:12:20.951Z,22.60
2019-06-20T14:14:50.617Z,22.70
2019-06-20T14:17:21.609Z,22.70
2019-06-20T14:19:51.412Z,22.50
2019-06-20T14:22:21.097Z,22.40
2019-06-20T14:24:51.020Z,22.60
2019-06-20T14:27:20.821Z,23.00
2019-06-20T14:29:50.896Z,23.10
2019-06-20T14:32:22.298Z,23.00
2019-06-20T14:34:52.231Z,22.60
2019-06-20T14:37:22.021Z,22.70
2019-06-20T14:39:52.643Z,22.80
2019-06-20T14:42:22.389Z,22.40
2019-06-20T14:44:52.453Z,22.60
2019-06-20T14:47:22.163Z,22.80
2019-06-20T14:49:51.999Z,22.70
2019-06-20T14:52:21.706Z,22.70
2019-06-20T14:54:51.709Z,22.80
2019-06-20T14:57:22.367Z,23.10
2019-06-20T14:59:52.685Z,23.20
2019-06-20T15:02:37.623Z,23.30
2019-06-20T15:04:54.471Z,23.50
2019-06-20T15:07:24.145Z,23.80
2019-06-20T15:09:55.180Z,23.80
2019-06-20T15:12:25.038Z,23.60
2019-06-20T15:14:55.527Z,23.70
2019-06-20T15:17:25.511Z,23.70
2019-06-20T15:19:56.145Z,23.50
2019-06-20T15:22:26.066Z,23.70
2019-06-20T15:24:57.213Z,23.80
2019-06-20T15:27:27.439Z,23.60
2019-06-20T15:29:57.265Z,23.40
2019-06-20T15:32:27.254Z,23.50
2019-06-20T15:34:57.261Z,23.60
2019-06-20T15:37:27.035Z,23.60
2019-06-20T15:39:57.502Z,23.60
2019-06-20T15:42:27.633Z,23.40
2019-06-20T15:44:58.121Z,23.00
2019-06-20T15:47:27.894Z,23.00
2019-06-20T15:49:58.920Z,23.10
2019-06-20T15:52:28.883Z,23.00
2019-06-20T15:54:58.544Z,22.90
2019-06-20T15:57:28.494Z,23.10
2019-06-20T15:59:58.392Z,23.40
2019-06-20T16:02:28.114Z,23.40
2019-06-20T16:04:57.871Z,23.40
2019-06-20T16:07:27.615Z,23.10
2019-06-20T16:09:57.346Z,23.10
2019-06-20T16:12:27.141Z,23.10
2019-06-20T16:14:57.136Z,22.80
2019-06-20T16:17:27.034Z,22.50
2019-06-20T16:19:56.696Z,22.50
2019-06-20T16:22:26.839Z,22.70
2019-06-20T16:24:56.613Z,22.80
2019-06-20T16:27:27.491Z,22.80
2019-06-20T16:29:57.507Z,22.90
2019-06-20T16:32:27.171Z,22.90
2019-06-20T16:34:56.892Z,22.90
2019-06-20T16:37:27.039Z,22.80
2019-06-20T16:39:56.779Z,22.80
2019-06-20T16:42:26.517Z,22.70
2019-06-20T16:44:56.292Z,22.90
2019-06-20T16:47:26.991Z,23.00
2019-06-20T16:49:57.875Z,23.00
2019-06-20T16:52:27.593Z,23.00
2019-06-20T16:54:57.262Z,23.10
2019-06-20T16:57:27.294Z,23.30
2019-06-20T16:59:56.968Z,23.20
2019-06-20T17:02:26.923Z,23.40
2019-06-20T17:04:56.836Z,23.60
2019-06-20T17:07:26.571Z,23.60
2019-06-20T17:09:56.232Z,23.50
2019-06-20T17:12:25.911Z,23.40
2019-06-20T17:14:55.559Z,23.40
2019-06-20T17:17:25.539Z,23.40
2019-06-20T17:19:55.185Z,23.40
2019-06-20T17:22:25.398Z,23.30
2019-06-20T17:24:55.242Z,23.10
2019-06-20T17:27:25.505Z,23.10
2019-06-20T17:29:55.516Z,23.20
2019-06-20T17:32:25.750Z,23.10
2019-06-20T17:34:55.413Z,23.20
2019-06-20T17:37:25.240Z,23.30
2019-06-20T17:39:55.184Z,23.40
2019-06-20T17:42:24.904Z,23.40
2019-06-20T17:44:54.614Z,23.40
2019-06-20T17:47:24.355Z,23.20
2019-06-20T17:49:53.982Z,23.00
2019-06-20T17:52:23.700Z,23.20
2019-06-20T17:54:53.436Z,23.20
2019-06-20T17:57:23.091Z,23.10
2019-06-20T17:59:52.800Z,23.20
2019-06-20T18:02:22.548Z,23.10
2019-06-20T18:04:52.209Z,23.10
2019-06-20T18:07:24.232Z,23.10
2019-06-20T18:09:53.867Z,22.90
2019-06-20T18:12:23.951Z,22.80
2019-06-20T18:14:53.599Z,22.80
2019-06-20T18:17:23.639Z,22.80
2019-06-20T18:19:53.336Z,22.90
2019-06-20T18:22:23.119Z,22.70
2019-06-20T18:24:53.019Z,22.70
2019-06-20T18:27:34.556Z,22.60
2019-06-20T18:30:05.520Z,22.60
2019-06-20T18:32:35.180Z,22.50
2019-06-20T18:35:05.703Z,22.60
2019-06-20T18:37:35.682Z,22.60
2019-06-20T18:40:05.880Z,22.60
2019-06-20T18:42:35.723Z,22.50
2019-06-20T18:45:06.243Z,22.50
2019-06-20T18:47:35.920Z,22.40
2019-06-20T18:50:06.206Z,22.40
2019-06-20T18:52:51.084Z,22.40
2019-06-20T18:55:08.813Z,22.40
2019-06-20T18:57:38.926Z,22.30
2019-06-20T19:00:09.155Z,22.20
2019-06-20T19:02:38.967Z,22.10
2019-06-20T19:05:09.692Z,22.00
2019-06-20T19:07:39.435Z,22.10
2019-06-20T19:10:09.719Z,22.10
2019-06-20T19:12:39.367Z,22.10
2019-06-20T19:15:09.763Z,22.10
2019-06-20T19:17:40.253Z,22.10
2019-06-20T19:20:10.735Z,22.00
2019-06-20T19:22:40.618Z,22.00
2019-06-20T19:25:10.640Z,22.00
2019-06-20T19:27:46.088Z,21.90
2019-06-20T19:30:13.918Z,21.90
2019-06-20T19:32:44.180Z,21.90
2019-06-20T19:35:14.467Z,21.70
2019-06-20T19:37:44.130Z,21.70
2019-06-20T19:40:14.651Z,21.60
2019-06-20T19:42:44.797Z,21.60
2019-06-20T19:45:16.265Z,21.50
2019-06-20T19:47:46.160Z,21.30
2019-06-20T19:50:16.295Z,21.20
2019-06-20T19:52:45.935Z,21.20
2019-06-20T19:55:15.826Z,21.20
2019-06-20T19:57:45.624Z,21.20
2019-06-20T20:00:16.164Z,21.10
2019-06-20T20:02:46.065Z,21.10
2019-06-20T20:05:19.591Z,21.10
2019-06-20T20:07:47.709Z,21.10
2019-06-20T20:10:23.412Z,21.10
2019-06-20T20:12:53.368Z,21.10
2019-06-20T20:15:23.099Z,21.00
2019-06-20T20:17:52.917Z,20.90
2019-06-20T20:20:22.730Z,20.80
2019-06-20T20:22:52.363Z,20.70
2019-06-20T20:25:22.367Z,20.60
2019-06-20T20:27:52.032Z,20.50
2019-06-20T20:30:22.292Z,20.40
2019-06-20T20:32:52.239Z,20.30
2019-06-20T20:35:35.036Z,20.30
2019-06-20T20:37:53.807Z,20.20
2019-06-20T20:40:23.967Z,20.20
2019-06-20T20:42:53.615Z,20.20
2019-06-20T20:45:23.632Z,20.20
2019-06-20T20:47:53.270Z,20.20
2019-06-20T20:50:23.179Z,20.20
2019-06-20T20:52:52.866Z,20.20
2019-06-20T20:55:23.480Z,20.20
2019-06-20T20:57:53.110Z,20.10
2019-06-20T21:00:26.655Z,20.00
2019-06-20T21:02:56.405Z,19.90
2019-06-20T21:05:26.147Z,19.80
2019-06-20T21:07:55.815Z,19.90
2019-06-20T21:10:26.204Z,19.90
2019-06-20T21:12:55.999Z,19.90
2019-06-20T21:15:25.930Z,19.90
2019-06-20T21:17:55.858Z,20.00
2019-06-20T21:20:25.775Z,20.00
2019-06-20T21:22:56.467Z,20.00
2019-06-20T21:25:26.144Z,19.90
2019-06-20T21:27:55.840Z,19.80
2019-06-20T21:30:25.723Z,19.70
2019-06-20T21:32:55.443Z,19.70
2019-06-20T21:35:25.123Z,19.60
2019-06-20T21:37:54.857Z,19.40
2019-06-20T21:40:24.551Z,19.40
2019-06-20T21:42:54.251Z,19.30
2019-06-20T21:45:24.255Z,19.10
2019-06-20T21:47:54.138Z,19.00
2019-06-20T21:50:24.217Z,19.00
2019-06-20T21:52:53.939Z,19.00
2019-06-20T21:55:23.839Z,19.00
2019-06-20T21:57:53.501Z,18.90
2019-06-20T22:00:28.309Z,18.80
2019-06-20T22:02:59.581Z,18.80
2019-06-20T22:05:29.270Z,18.90
2019-06-20T22:07:59.110Z,18.80
2019-06-20T22:10:28.911Z,18.80
2019-06-20T22:12:58.622Z,18.90
2019-06-20T22:15:28.339Z,18.90
2019-06-20T22:17:58.664Z,19.00
2019-06-20T22:20:28.660Z,19.00
2019-06-20T22:22:58.315Z,18.90
2019-06-20T22:25:28.112Z,18.80
2019-06-20T22:27:57.809Z,18.80
2019-06-20T22:30:46.299Z,18.80
2019-06-20T22:33:15.995Z,19.00
2019-06-20T22:35:46.143Z,19.00
2019-06-20T22:38:16.018Z,19.00
2019-06-20T22:40:46.908Z,19.10
2019-06-20T22:43:16.965Z,19.00
2019-06-20T22:45:47.054Z,19.00
2019-06-20T22:48:16.747Z,19.00
2019-06-20T22:50:46.493Z,19.00
2019-06-20T22:53:16.362Z,19.00
2019-06-20T22:55:46.220Z,18.90
2019-06-20T22:58:15.922Z,18.70
2019-06-20T23:00:45.696Z,18.50
2019-06-20T23:03:15.445Z,18.40
2019-06-20T23:05:45.255Z,18.20
2019-06-20T23:08:15.104Z,18.10
2019-06-20T23:10:44.758Z,18.20
2019-06-20T23:13:15.375Z,18.20
2019-06-20T23:15:45.193Z,18.20
2019-06-20T23:18:15.311Z,18.20
2019-06-20T23:21:03.711Z,18.20
2019-06-20T23:23:16.566Z,18.20
2019-06-20T23:25:48.691Z,18.20
2019-06-20T23:28:18.623Z,18.20
2019-06-20T23:30:48.531Z,18.30
2019-06-20T23:33:18.449Z,18.30
2019-06-20T23:35:48.104Z,18.20
2019-06-20T23:38:18.069Z,18.10
2019-06-20T23:40:48.142Z,17.90
2019-06-20T23:43:17.878Z,17.90
2019-06-20T23:45:47.591Z,17.80
2019-06-20T23:48:17.273Z,17.80
2019-06-20T23:50:46.951Z,17.80
2019-06-20T23:53:20.858Z,17.80
2019-06-20T23:55:50.550Z,17.70
2019-06-20T23:58:20.296Z,17.70
